Harrisville, WV

11:45 AM EST on November 26, 2014 (GMT -0500)
W8PY @ Harmony | Change Station
CLOSE
Current Station
Personal Weather Station
Location: West Union, WV
Elevation: 852 ft
Nearby Weather Stations

Elev 852 ft 39.17 °N, 80.82 °W | Updated 14 minutes ago

Overcast
Overcast
33.7 °F
Feels Like 34 °F
N
0.0
Wind Variable Wind from ESE
Gusts 0.0 mph

Today
High -- | Low -- °F
--% Chance of Precip.
Yesterday
High -- | Low -- °F
Precip. -- in
7:19 AM 5:03 PM
Waxing Crescent, 21% visible
Pressure 30.11 in
Visibility 2.5 miles
Clouds Overcast 500 ft
Windchill 34 °F
Dew Point 32 °F
Humidity 93%
Rainfall 0.07 in
Snow Depth Not available.
UV 1 out of 12
Pollen .10 out of 12
Air Quality Not available.
Flu Activity Not available.
SPECI KPKB 261625Z 32003KT 2 1/2SM -SN BR OVC005 01/M01 A3011 RMK AO2 CIG 003V008 P0000 T00111006

More Conditions Fewer Conditions

Pressure 30.11 in
Visibility 2.5 miles
Clouds Overcast 500 ft
Windchill 34 °F
Dew Point 32 °F
Humidity 93%
Rainfall 0.07 in
Snow Depth Not available.
UV 1 out of 12
Pollen .10 out of 12
Air Quality Not available.
Flu Activity Not available.
SPECI KPKB 261625Z 32003KT 2 1/2SM -SN BR OVC005 01/M01 A3011 RMK AO2 CIG 003V008 P0000 T00111006

More Conditions Fewer Conditions

10-Day Weather Forecast

Almanac

Astronomy

Nov. 26, 2014 Rise Set
Actual Time
Civil Twilight
Nautical Twilight
Astronomical Twilight
Moon
Length of Visible Light
Length of Day
Tomorrow will be .
, % of the Moon is Illuminated

Today's Extremes

State Highs State Lows

Community

WunderPhotos

Upload Photos

1,773,793 photos uploaded!

WunderBlogs® & News

Nearby

Air Quality

  Air Quality AQ Index Pollutant
Not available.

Snow Depth

Station Depth Elevation

Earthquake Activity

City Distance Mag. Time & Date
Minimum magnitude displayed is 2.5.

Coastal Water Temperatures

Place Temperature

Nearby Weather Stations